Time;durP1;ratioP1;P1;durP2;ratioP2;P2;SDS_P1;SDS_P2;PMS_P1;PMS_P2;Temp;Humidity;BMP_temperature;BMP_pressure;BME280_temperature;BME280_humidity;BME280_pressure;Samples;Min_cycle;Max_cycle;Signal;HPM_P1;HPM_P2
2022/04/02 00:01:17;;;;;;;6.32;3.10;;;;;;;;;;5029147;28;20048;-72
2022/04/02 00:03:43;;;;;;;6.00;2.80;;;;;;;;;;5028532;28;20030;-74
2022/04/02 00:06:09;;;;;;;6.38;3.00;;;;;;;;;;5028504;28;20044;-74
2022/04/02 00:08:35;;;;;;;5.90;2.80;;;;;;;;;;5023488;28;20160;-74
2022/04/02 00:11:01;;;;;;;7.82;3.05;;;;;;;;;;5027613;28;20029;-72
2022/04/02 00:13:30;;;;;;;5.28;2.85;;;;;;;;;;5027696;28;20078;-75
2022/04/02 00:15:57;;;;;;;11.95;3.10;;;;;;;;;;5029103;28;20029;-74
2022/04/02 00:18:23;;;;;;;7.18;3.33;;;;;;;;;;5028829;28;20021;-74
2022/04/02 00:20:49;;;;;;;5.22;2.72;;;;;;;;;;5029564;28;20103;-73
2022/04/02 00:26:02;;;;;;;5.57;3.10;;;;;;;;;;5023506;28;20036;-74
2022/04/02 00:28:28;;;;;;;5.47;3.25;;;;;;;;;;5029424;28;20030;-74
2022/04/02 00:30:54;;;;;;;8.32;3.15;;;;;;;;;;5029940;28;20160;-74
2022/04/02 00:33:20;;;;;;;4.80;2.97;;;;;;;;;;5029000;28;20045;-74
2022/04/02 00:35:46;;;;;;;6.07;2.92;;;;;;;;;;5027749;28;20514;-73
2022/04/02 00:38:12;;;;;;;8.95;2.90;;;;;;;;;;5027023;28;20028;-74
2022/04/02 00:40:42;;;;;;;6.72;3.10;;;;;;;;;;5028982;28;20033;-73
2022/04/02 00:43:27;;;;;;;7.15;3.05;;;;;;;;;;5028527;28;20228;-74
2022/04/02 00:45:53;;;;;;;7.15;2.88;;;;;;;;;;5021577;28;20034;-73
2022/04/02 00:48:20;;;;;;;6.43;3.03;;;;;;;;;;5027977;28;20050;-74
2022/04/02 00:50:47;;;;;;;4.85;2.80;;;;;;;;;;5027734;28;20033;-73
2022/04/02 00:53:15;;;;;;;6.13;3.40;;;;;;;;;;5029028;28;20048;-73
2022/04/02 00:55:42;;;;;;;9.88;2.97;;;;;;;;;;5029430;28;20462;-74
2022/04/02 00:58:10;;;;;;;6.80;3.17;;;;;;;;;;5026672;28;20026;-74
2022/04/02 01:00:36;;;;;;;6.38;3.38;;;;;;;;;;5026455;28;20049;-74
2022/04/02 01:03:03;;;;;;;6.70;3.00;;;;;;;;;;5028918;28;20037;-73
2022/04/02 01:05:29;;;;;;;6.28;2.90;;;;;;;;;;5027169;28;20072;-74
2022/04/02 01:07:55;;;;;;;7.70;2.75;;;;;;;;;;5026782;28;20025;-72
2022/04/02 01:10:21;;;;;;;9.75;3.70;;;;;;;;;;5028348;28;20033;-74
2022/04/02 01:12:47;;;;;;;8.75;3.20;;;;;;;;;;5028674;28;20042;-73
2022/04/02 01:15:13;;;;;;;8.15;3.55;;;;;;;;;;5025095;28;20025;-74
2022/04/02 01:17:40;;;;;;;5.95;3.00;;;;;;;;;;5026233;28;20087;-74
2022/04/02 01:20:10;;;;;;;9.55;2.80;;;;;;;;;;5026626;28;20076;-75
2022/04/02 01:22:37;;;;;;;5.38;2.35;;;;;;;;;;5029466;28;20033;-75
2022/04/02 01:25:05;;;;;;;5.50;2.65;;;;;;;;;;5010440;28;20493;-74
2022/04/02 01:27:31;;;;;;;6.85;2.95;;;;;;;;;;5027371;28;20081;-73
2022/04/02 01:29:57;;;;;;;5.78;3.03;;;;;;;;;;5025988;28;20072;-73
2022/04/02 01:32:23;;;;;;;5.80;2.92;;;;;;;;;;5028040;28;20042;-72
2022/04/02 01:34:49;;;;;;;8.50;2.88;;;;;;;;;;5025480;28;20029;-73
2022/04/02 01:37:16;;;;;;;7.43;2.90;;;;;;;;;;5029880;28;20037;-72
2022/04/02 01:39:43;;;;;;;5.13;2.95;;;;;;;;;;5028750;28;20033;-73
2022/04/02 01:42:09;;;;;;;6.75;3.00;;;;;;;;;;5030432;28;20452;-72
2022/04/02 01:44:35;;;;;;;7.38;3.20;;;;;;;;;;5030311;28;20490;-74
2022/04/02 01:47:02;;;;;;;4.53;2.70;;;;;;;;;;5030515;28;20249;-73
2022/04/02 01:49:28;;;;;;;5.90;2.95;;;;;;;;;;5030767;28;20038;-72
2022/04/02 01:51:54;;;;;;;5.35;3.05;;;;;;;;;;5027774;28;20026;-72
2022/04/02 01:54:21;;;;;;;4.80;2.53;;;;;;;;;;5028872;28;20041;-73
2022/04/02 01:56:48;;;;;;;5.78;2.95;;;;;;;;;;5030690;28;20056;-73
2022/04/02 01:59:14;;;;;;;5.43;3.00;;;;;;;;;;5030119;28;20040;-74
2022/04/02 02:01:40;;;;;;;4.38;2.92;;;;;;;;;;5030433;28;20058;-73
2022/04/02 02:04:06;;;;;;;7.13;2.58;;;;;;;;;;5013504;28;20028;-73
2022/04/02 02:06:33;;;;;;;6.07;3.00;;;;;;;;;;5028414;28;20025;-74
2022/04/02 02:09:00;;;;;;;5.75;2.60;;;;;;;;;;5029727;28;20026;-72
2022/04/02 02:11:26;;;;;;;5.40;2.90;;;;;;;;;;5028443;28;20037;-74
2022/04/02 02:13:52;;;;;;;10.27;3.50;;;;;;;;;;5029735;28;20104;-74
2022/04/02 02:16:18;;;;;;;7.18;2.83;;;;;;;;;;5027082;28;20033;-74
2022/04/02 02:18:44;;;;;;;4.82;2.80;;;;;;;;;;5029562;28;20544;-73
2022/04/02 02:21:11;;;;;;;5.68;2.88;;;;;;;;;;5027135;28;20108;-74
2022/04/02 02:23:37;;;;;;;4.07;2.50;;;;;;;;;;5030432;28;20075;-74
2022/04/02 02:26:03;;;;;;;5.75;2.65;;;;;;;;;;5011389;28;20479;-74
2022/04/02 02:28:29;;;;;;;9.50;3.70;;;;;;;;;;5027092;28;20518;-73
2022/04/02 02:30:55;;;;;;;17.90;3.88;;;;;;;;;;5030338;28;20116;-73
2022/04/02 02:36:06;;;;;;;10.73;3.08;;;;;;;;;;5028011;28;20530;-74
2022/04/02 02:38:32;;;;;;;7.13;3.15;;;;;;;;;;5027670;28;20038;-74
2022/04/02 02:40:58;;;;;;;7.63;2.92;;;;;;;;;;5030710;28;20333;-74
2022/04/02 02:43:24;;;;;;;5.40;3.13;;;;;;;;;;5027995;28;20036;-74
2022/04/02 02:45:50;;;;;;;6.30;3.13;;;;;;;;;;5027326;28;20037;-74
2022/04/02 02:48:17;;;;;;;6.70;3.03;;;;;;;;;;5028777;28;20029;-74
2022/04/02 02:50:43;;;;;;;8.68;3.58;;;;;;;;;;5029219;28;20058;-74
2022/04/02 02:53:10;;;;;;;11.60;3.58;;;;;;;;;;5029248;28;20108;-74
2022/04/02 02:55:36;;;;;;;6.28;2.65;;;;;;;;;;5029086;28;20042;-73
2022/04/02 02:58:02;;;;;;;5.53;2.97;;;;;;;;;;5029171;28;20040;-73
2022/04/02 03:00:28;;;;;;;4.43;2.60;;;;;;;;;;5028059;28;20479;-73
2022/04/02 03:02:55;;;;;;;6.25;2.95;;;;;;;;;;5026680;28;20025;-74
2022/04/02 03:05:21;;;;;;;4.63;2.70;;;;;;;;;;5028434;28;20060;-74
2022/04/02 03:07:49;;;;;;;5.80;3.05;;;;;;;;;;5027328;28;20068;-73
2022/04/02 03:10:19;;;;;;;9.43;2.80;;;;;;;;;;5028635;28;20033;-73
2022/04/02 03:12:46;;;;;;;8.23;3.15;;;;;;;;;;5027077;28;20068;-74
2022/04/02 03:15:12;;;;;;;5.72;2.90;;;;;;;;;;5028524;28;20021;-73
2022/04/02 03:17:39;;;;;;;9.63;2.70;;;;;;;;;;5028906;28;20037;-74
2022/04/02 03:20:06;;;;;;;5.80;2.80;;;;;;;;;;5027825;28;20498;-73
2022/04/02 03:22:39;;;;;;;7.20;2.83;;;;;;;;;;5029664;28;20116;-73
2022/04/02 03:25:05;;;;;;;6.05;2.45;;;;;;;;;;5027770;28;20038;-74
2022/04/02 03:27:32;;;;;;;6.93;2.85;;;;;;;;;;5026815;28;20033;-74
2022/04/02 03:30:09;;;;;;;11.82;3.50;;;;;;;;;;5028584;28;20383;-72
2022/04/02 03:32:35;;;;;;;6.25;2.58;;;;;;;;;;5026825;28;20045;-74
2022/04/02 03:35:01;;;;;;;6.63;2.90;;;;;;;;;;5028863;28;20040;-74
2022/04/02 03:37:28;;;;;;;5.32;2.70;;;;;;;;;;5028982;28;20028;-73
2022/04/02 03:39:54;;;;;;;7.05;2.90;;;;;;;;;;5026635;28;20164;-75
2022/04/02 03:42:20;;;;;;;7.28;3.20;;;;;;;;;;5028863;28;20025;-74
2022/04/02 03:44:47;;;;;;;6.45;2.67;;;;;;;;;;5028922;28;20445;-74
2022/04/02 03:47:13;;;;;;;5.40;2.20;;;;;;;;;;5025172;28;20116;-74
2022/04/02 03:49:40;;;;;;;6.28;2.80;;;;;;;;;;5026468;28;20525;-74
2022/04/02 03:52:07;;;;;;;4.13;2.42;;;;;;;;;;5028671;28;20029;-74
2022/04/02 03:54:35;;;;;;;4.97;2.50;;;;;;;;;;5024659;28;20129;-73
2022/04/02 03:57:01;;;;;;;5.82;2.58;;;;;;;;;;5028711;28;20455;-73
2022/04/02 03:59:27;;;;;;;4.70;2.78;;;;;;;;;;5026584;28;20034;-73
2022/04/02 04:01:53;;;;;;;8.27;3.08;;;;;;;;;;5028253;28;20158;-74
2022/04/02 04:04:19;;;;;;;7.43;3.03;;;;;;;;;;5026963;28;20037;-74
2022/04/02 04:06:45;;;;;;;6.60;3.25;;;;;;;;;;5011143;28;20081;-73
2022/04/02 04:09:11;;;;;;;11.60;3.33;;;;;;;;;;5026591;28;20045;-75
2022/04/02 04:11:38;;;;;;;5.85;3.00;;;;;;;;;;5028803;28;20048;-74
2022/04/02 04:14:04;;;;;;;6.68;2.85;;;;;;;;;;5027512;28;20026;-74
2022/04/02 04:16:30;;;;;;;10.70;2.83;;;;;;;;;;5008539;28;20033;-75
2022/04/02 04:18:56;;;;;;;5.93;2.80;;;;;;;;;;5026303;28;20025;-74
2022/04/02 04:21:24;;;;;;;7.88;2.85;;;;;;;;;;5010292;28;20060;-73
2022/04/02 04:23:51;;;;;;;4.85;2.85;;;;;;;;;;5026002;28;20091;-73
2022/04/02 04:26:17;;;;;;;8.57;3.15;;;;;;;;;;5025643;28;20033;-74
2022/04/02 04:28:43;;;;;;;6.22;2.45;;;;;;;;;;5025489;28;20056;-73
2022/04/02 04:31:09;;;;;;;5.45;2.88;;;;;;;;;;5026556;28;20051;-73
2022/04/02 04:33:37;;;;;;;5.35;3.03;;;;;;;;;;5026018;28;20030;-73
2022/04/02 04:36:04;;;;;;;7.53;3.10;;;;;;;;;;5027844;28;20071;-74
2022/04/02 04:38:30;;;;;;;8.35;3.17;;;;;;;;;;5025414;28;20138;-73
2022/04/02 04:40:57;;;;;;;7.82;3.13;;;;;;;;;;5026090;28;20139;-73
2022/04/02 04:43:23;;;;;;;5.78;2.97;;;;;;;;;;5024591;28;20028;-73
2022/04/02 04:45:50;;;;;;;6.38;3.10;;;;;;;;;;5026698;28;20033;-73
2022/04/02 04:48:16;;;;;;;4.40;2.67;;;;;;;;;;5023746;28;20057;-73
2022/04/02 04:50:42;;;;;;;8.20;3.00;;;;;;;;;;5027073;28;20025;-73
2022/04/02 04:53:10;;;;;;;7.53;3.28;;;;;;;;;;5025674;28;20034;-73
2022/04/02 04:55:36;;;;;;;9.13;3.85;;;;;;;;;;5026197;28;20091;-73
2022/04/02 04:58:02;;;;;;;8.45;3.15;;;;;;;;;;5026043;28;20033;-73
2022/04/02 05:00:28;;;;;;;6.47;3.03;;;;;;;;;;5024521;28;20517;-72
2022/04/02 05:02:55;;;;;;;9.50;3.08;;;;;;;;;;5026256;28;20080;-74
2022/04/02 05:05:23;;;;;;;6.78;3.38;;;;;;;;;;5027325;28;20045;-74
2022/04/02 05:07:49;;;;;;;8.70;3.58;;;;;;;;;;5025147;28;20026;-73
2022/04/02 05:10:16;;;;;;;8.27;3.17;;;;;;;;;;5027706;28;20124;-73
2022/04/02 05:12:42;;;;;;;7.35;3.35;;;;;;;;;;5030000;28;20122;-74
2022/04/02 05:15:09;;;;;;;14.18;3.35;;;;;;;;;;5031083;28;20025;-73
2022/04/02 05:17:38;;;;;;;16.92;3.88;;;;;;;;;;5016460;28;20049;-74
2022/04/02 05:20:05;;;;;;;6.30;3.50;;;;;;;;;;5034079;28;20471;-74
2022/04/02 05:22:31;;;;;;;5.88;3.60;;;;;;;;;;5034001;28;20049;-73
2022/04/02 05:24:57;;;;;;;8.25;3.40;;;;;;;;;;5030858;28;20029;-73
2022/04/02 05:27:28;;;;;;;7.38;3.33;;;;;;;;;;5033133;28;20029;-73
2022/04/02 05:29:54;;;;;;;8.77;3.30;;;;;;;;;;5029878;28;20044;-74
2022/04/02 05:32:20;;;;;;;6.47;3.22;;;;;;;;;;5032995;28;20029;-73
2022/04/02 05:34:46;;;;;;;6.40;3.38;;;;;;;;;;5032075;28;20017;-73
2022/04/02 05:37:13;;;;;;;9.90;3.85;;;;;;;;;;5033683;28;20108;-73
2022/04/02 05:39:41;;;;;;;11.38;4.38;;;;;;;;;;5032704;28;20040;-74
2022/04/02 05:42:08;;;;;;;7.90;3.25;;;;;;;;;;5030226;28;20041;-73
2022/04/02 05:44:34;;;;;;;9.50;3.33;;;;;;;;;;5014772;28;20037;-73
2022/04/02 05:47:00;;;;;;;7.20;3.30;;;;;;;;;;5031688;28;20116;-73
2022/04/02 05:49:26;;;;;;;9.68;4.28;;;;;;;;;;5030806;28;20025;-74
2022/04/02 05:51:52;;;;;;;8.20;3.67;;;;;;;;;;5032895;28;20037;-73
2022/04/02 05:54:19;;;;;;;7.10;3.75;;;;;;;;;;5032537;28;20029;-74
2022/04/02 05:56:45;;;;;;;6.93;3.88;;;;;;;;;;5032745;28;20164;-73
2022/04/02 05:59:11;;;;;;;8.65;4.20;;;;;;;;;;5032287;28;21608;-73
2022/04/02 06:01:37;;;;;;;11.80;3.97;;;;;;;;;;5032960;28;20060;-74
2022/04/02 06:04:04;;;;;;;9.85;3.97;;;;;;;;;;5032376;28;20071;-74
2022/04/02 06:06:30;;;;;;;10.15;4.28;;;;;;;;;;5030014;28;20029;-74
2022/04/02 06:09:04;;;;;;;8.75;4.22;;;;;;;;;;5030369;28;20117;-74
2022/04/02 06:11:30;;;;;;;10.02;4.25;;;;;;;;;;5030957;28;20037;-74
2022/04/02 06:13:56;;;;;;;7.68;4.00;;;;;;;;;;5032288;28;20029;-73
2022/04/02 06:16:23;;;;;;;9.95;4.25;;;;;;;;;;5031210;28;20091;-74
2022/04/02 06:18:49;;;;;;;6.13;4.15;;;;;;;;;;5033485;28;20056;-74
2022/04/02 06:21:16;;;;;;;13.32;4.03;;;;;;;;;;5031742;28;20073;-73
2022/04/02 06:23:45;;;;;;;6.28;3.85;;;;;;;;;;5029677;28;20034;-74
2022/04/02 06:26:11;;;;;;;9.93;4.80;;;;;;;;;;5029777;28;20101;-74
2022/04/02 06:28:37;;;;;;;11.98;3.85;;;;;;;;;;5028102;28;20037;-73
2022/04/02 06:31:04;;;;;;;7.47;3.78;;;;;;;;;;5030442;28;20525;-73
2022/04/02 06:33:34;;;;;;;12.50;3.63;;;;;;;;;;5029559;28;20025;-73
2022/04/02 06:36:01;;;;;;;6.85;3.55;;;;;;;;;;5027682;28;20111;-73
2022/04/02 06:38:27;;;;;;;6.80;3.53;;;;;;;;;;5011902;28;20057;-75
2022/04/02 06:40:53;;;;;;;11.95;3.53;;;;;;;;;;5019252;28;20033;-74
2022/04/02 06:43:20;;;;;;;14.10;4.60;;;;;;;;;;5030003;28;20519;-74
2022/04/02 06:45:45;;;;;;;8.13;3.85;;;;;;;;;;5028488;28;20033;-74
2022/04/02 06:48:13;;;;;;;7.90;3.95;;;;;;;;;;5029496;28;20044;-73
2022/04/02 06:50:40;;;;;;;8.18;3.42;;;;;;;;;;5031604;28;20056;-74
2022/04/02 06:53:07;;;;;;;8.40;3.88;;;;;;;;;;5030336;28;20080;-74
2022/04/02 06:55:35;;;;;;;11.15;3.65;;;;;;;;;;5031488;28;20052;-74
2022/04/02 06:58:02;;;;;;;7.45;3.30;;;;;;;;;;5029868;28;20118;-74
2022/04/02 07:00:28;;;;;;;9.38;3.65;;;;;;;;;;5024152;28;20037;-75
2022/04/02 07:02:54;;;;;;;6.43;3.50;;;;;;;;;;5022218;28;20021;-74
2022/04/02 07:05:20;;;;;;;8.35;3.35;;;;;;;;;;5021619;28;20025;-74
2022/04/02 07:07:47;;;;;;;7.85;3.50;;;;;;;;;;5022143;28;20483;-74
2022/04/02 07:10:13;;;;;;;10.05;3.50;;;;;;;;;;5026141;28;20593;-74
2022/04/02 07:12:39;;;;;;;9.77;3.42;;;;;;;;;;5004670;28;20042;-74
2022/04/02 07:15:06;;;;;;;8.27;3.97;;;;;;;;;;5024787;28;20467;-74
2022/04/02 07:17:32;;;;;;;8.43;3.40;;;;;;;;;;5021761;28;20041;-73
2022/04/02 07:19:59;;;;;;;11.60;3.20;;;;;;;;;;5022195;28;20034;-73
2022/04/02 07:22:26;;;;;;;11.13;3.50;;;;;;;;;;5021092;28;20499;-74
2022/04/02 07:24:53;;;;;;;8.88;3.00;;;;;;;;;;5020573;28;20041;-74
2022/04/02 07:27:23;;;;;;;7.70;3.13;;;;;;;;;;5024104;28;20060;-74
2022/04/02 07:29:52;;;;;;;8.40;2.72;;;;;;;;;;5023148;28;20471;-74
2022/04/02 07:32:19;;;;;;;12.13;2.83;;;;;;;;;;5019924;28;20491;-74
2022/04/02 07:34:45;;;;;;;5.43;2.60;;;;;;;;;;5025507;28;20128;-72
2022/04/02 07:37:17;;;;;;;12.40;3.10;;;;;;;;;;5024051;28;20482;-74
2022/04/02 07:39:46;;;;;;;7.55;3.30;;;;;;;;;;5026113;28;20041;-75
2022/04/02 07:42:23;;;;;;;7.50;3.03;;;;;;;;;;5023060;28;20488;-72
2022/04/02 07:45:04;;;;;;;7.45;3.05;;;;;;;;;;5025435;28;20045;-73
2022/04/02 07:47:32;;;;;;;7.35;3.03;;;;;;;;;;5022180;28;20044;-74
2022/04/02 07:50:03;;;;;;;8.38;2.85;;;;;;;;;;5021434;28;20072;-74
2022/04/02 07:52:29;;;;;;;11.75;3.67;;;;;;;;;;5024452;28;20037;-73
2022/04/02 07:54:59;;;;;;;8.05;2.95;;;;;;;;;;5022032;28;20040;-72
2022/04/02 07:57:28;;;;;;;7.40;3.03;;;;;;;;;;5020356;28;20128;-74
2022/04/02 08:00:03;;;;;;;8.38;2.88;;;;;;;;;;5019835;28;20014;-73
2022/04/02 08:02:37;;;;;;;7.80;2.95;;;;;;;;;;5019835;28;20558;-72
2022/04/02 08:05:04;;;;;;;7.80;2.80;;;;;;;;;;5019897;28;20084;-73
2022/04/02 08:07:31;;;;;;;6.45;2.70;;;;;;;;;;5022900;28;20102;-73
2022/04/02 08:09:57;;;;;;;9.15;3.75;;;;;;;;;;5022372;28;20134;-74
2022/04/02 08:12:24;;;;;;;12.07;3.42;;;;;;;;;;5020821;28;20049;-74
2022/04/02 08:14:51;;;;;;;7.03;3.20;;;;;;;;;;5021102;28;20033;-73
2022/04/02 08:17:17;;;;;;;8.25;2.97;;;;;;;;;;5023295;28;20052;-73
2022/04/02 08:19:44;;;;;;;10.15;3.28;;;;;;;;;;5024333;28;20175;-75
2022/04/02 08:22:10;;;;;;;8.13;3.42;;;;;;;;;;5022222;28;20029;-73
2022/04/02 08:24:36;;;;;;;5.22;2.88;;;;;;;;;;5019945;28;20506;-73
2022/04/02 08:27:04;;;;;;;9.50;3.00;;;;;;;;;;5017009;28;20029;-73
2022/04/02 08:29:34;;;;;;;14.57;3.78;;;;;;;;;;5021542;28;20096;-73
2022/04/02 08:32:03;;;;;;;8.73;3.40;;;;;;;;;;5019768;28;20175;-73
2022/04/02 08:34:41;;;;;;;12.13;3.28;;;;;;;;;;5027125;28;20064;-73
2022/04/02 08:37:19;;;;;;;10.27;3.22;;;;;;;;;;5022982;28;20025;-73
2022/04/02 08:39:54;;;;;;;11.63;2.88;;;;;;;;;;5021789;28;20036;-74
2022/04/02 08:42:35;;;;;;;7.90;3.15;;;;;;;;;;5017702;28;20029;-73
2022/04/02 08:45:01;;;;;;;;;;;;;;;;;;5019528;28;20022;-73
2022/04/02 08:47:27;;;;;;;10.95;3.63;;;;;;;;;;5018769;28;19910;-73
2022/04/02 08:50:12;;;;;;;9.93;3.78;;;;;;;;;;5020980;28;20039;-73
2022/04/02 08:52:41;;;;;;;5.57;2.90;;;;;;;;;;5021996;28;20044;-73
2022/04/02 08:55:14;;;;;;;7.82;2.83;;;;;;;;;;5017222;28;20034;-75
2022/04/02 08:57:55;;;;;;;11.48;3.17;;;;;;;;;;5018532;28;20026;-73
2022/04/02 09:00:23;;;;;;;;;;;;;;;;;;5023904;28;20030;-73
2022/04/02 09:02:55;;;;;;;6.97;3.08;;;;;;;;;;5020325;28;19920;-73
2022/04/02 09:05:25;;;;;;;10.18;3.88;;;;;;;;;;5021670;28;20033;-71
2022/04/02 09:07:57;;;;;;;8.55;3.65;;;;;;;;;;5021152;28;20143;-74
2022/04/02 09:10:35;;;;;;;9.27;3.40;;;;;;;;;;5020232;28;20030;-74
2022/04/02 09:13:20;;;;;;;5.88;2.95;;;;;;;;;;5023056;28;20124;-73
2022/04/02 09:16:02;;;;;;;16.50;4.72;;;;;;;;;;5026313;28;20030;-73
2022/04/02 09:18:47;;;;;;;5.60;2.80;;;;;;;;;;5026665;28;20026;-73
2022/04/02 09:21:28;;;;;;;5.07;2.55;;;;;;;;;;5027395;28;20041;-73
2022/04/02 09:24:21;;;;;;;4.22;2.38;;;;;;;;;;5028006;28;20026;-74
2022/04/02 09:26:50;;;;;;;4.90;2.20;;;;;;;;;;5028629;28;20119;-73
2022/04/02 09:29:16;;;;;;;4.80;2.72;;;;;;;;;;5027087;28;20026;-74
2022/04/02 09:32:01;;;;;;;4.05;2.08;;;;;;;;;;5026971;28;20482;-72
2022/04/02 09:34:30;;;;;;;6.20;2.20;;;;;;;;;;5017329;28;20052;-73
2022/04/02 09:37:08;;;;;;;5.80;2.50;;;;;;;;;;5027362;28;20037;-74
2022/04/02 09:39:53;;;;;;;6.38;2.58;;;;;;;;;;5015822;28;20034;-75
2022/04/02 09:42:37;;;;;;;4.63;2.58;;;;;;;;;;5026136;28;20037;-76
2022/04/02 09:45:09;;;;;;;9.82;2.67;;;;;;;;;;5027109;28;20085;-72
2022/04/02 09:47:35;;;;;;;4.40;2.00;;;;;;;;;;5025310;28;20038;-71
2022/04/02 09:50:08;;;;;;;5.70;2.33;;;;;;;;;;5008212;28;20033;-74
2022/04/02 09:52:36;;;;;;;3.67;2.50;;;;;;;;;;5008820;28;20053;-74
2022/04/02 09:55:05;;;;;;;8.73;2.47;;;;;;;;;;5024140;28;20486;-72
2022/04/02 09:57:38;;;;;;;6.72;2.65;;;;;;;;;;5012809;28;20030;-74
2022/04/02 10:00:04;;;;;;;4.35;2.40;;;;;;;;;;5019075;28;20032;-73
2022/04/02 10:02:33;;;;;;;6.70;2.60;;;;;;;;;;5030863;28;20075;-73
2022/04/02 10:05:04;;;;;;;10.18;2.42;;;;;;;;;;5031744;28;20033;-72
2022/04/02 10:07:30;;;;;;;;;;;;;;;;;;5032616;28;20025;-73
2022/04/02 10:09:58;;;;;;;3.40;2.15;;;;;;;;;;5031374;28;19912;-74
2022/04/02 10:12:25;;;;;;;3.22;1.85;;;;;;;;;;5030742;28;20575;-74
2022/04/02 10:14:56;;;;;;;16.08;2.70;;;;;;;;;;5031997;28;20131;-73
2022/04/02 10:17:28;;;;;;;6.63;2.00;;;;;;;;;;5030050;28;20029;-74
2022/04/02 10:19:55;;;;;;;4.90;2.13;;;;;;;;;;5030143;28;20033;-74
2022/04/02 10:22:28;;;;;;;4.35;2.15;;;;;;;;;;5032794;28;20018;-74
2022/04/02 10:24:55;;;;;;;8.82;2.20;;;;;;;;;;5032807;28;20095;-73
2022/04/02 10:27:30;;;;;;;4.28;2.40;;;;;;;;;;5031352;28;20040;-73
2022/04/02 10:30:13;;;;;;;9.27;3.28;;;;;;;;;;5031765;28;20061;-74
2022/04/02 10:32:54;;;;;;;5.68;2.50;;;;;;;;;;5027269;28;20095;-73
2022/04/02 10:35:21;;;;;;;5.60;2.35;;;;;;;;;;5031215;28;20018;-70
2022/04/02 10:38:06;;;;;;;4.00;2.20;;;;;;;;;;5030997;28;20075;-73
2022/04/02 10:40:35;;;;;;;4.13;2.50;;;;;;;;;;5032388;28;20036;-73
2022/04/02 10:43:04;;;;;;;3.40;1.83;;;;;;;;;;5030731;28;20041;-74
2022/04/02 10:45:32;;;;;;;6.78;2.15;;;;;;;;;;5034347;28;20029;-73
2022/04/02 10:48:17;;;;;;;8.25;2.20;;;;;;;;;;5033271;28;20552;-74
2022/04/02 10:50:45;;;;;;;9.88;2.35;;;;;;;;;;5035014;28;20120;-74
2022/04/02 10:53:13;;;;;;;7.10;2.25;;;;;;;;;;5034681;28;20034;-72
2022/04/02 10:55:45;;;;;;;5.43;2.78;;;;;;;;;;5034334;28;20146;-75
2022/04/02 10:58:11;;;;;;;5.78;2.90;;;;;;;;;;5034196;28;20056;-73
2022/04/02 11:00:38;;;;;;;5.28;2.53;;;;;;;;;;5033072;28;20018;-76
2022/04/02 11:03:05;;;;;;;8.38;3.38;;;;;;;;;;5034264;28;20091;-74
2022/04/02 11:05:35;;;;;;;6.47;2.78;;;;;;;;;;5033895;28;20033;-75
2022/04/02 11:08:05;;;;;;;8.05;2.50;;;;;;;;;;5033039;28;20030;-75
2022/04/02 11:10:34;;;;;;;7.87;2.80;;;;;;;;;;5033852;28;20034;-73
2022/04/02 11:13:01;;;;;;;5.72;2.38;;;;;;;;;;5033954;28;20361;-74
2022/04/02 11:15:27;;;;;;;5.30;2.38;;;;;;;;;;5034184;28;20067;-73
2022/04/02 11:17:55;;;;;;;5.60;2.33;;;;;;;;;;5034997;28;20045;-74
2022/04/02 11:20:21;;;;;;;16.10;3.15;;;;;;;;;;5034193;28;20475;-74
2022/04/02 11:22:49;;;;;;;4.93;2.30;;;;;;;;;;5034054;28;20030;-74
2022/04/02 11:25:28;;;;;;;5.78;2.30;;;;;;;;;;5032086;28;20021;-74
2022/04/02 11:27:55;;;;;;;5.65;2.15;;;;;;;;;;5031631;28;20450;-75
2022/04/02 11:30:22;;;;;;;7.28;2.28;;;;;;;;;;5034367;28;20134;-75
2022/04/02 11:32:50;;;;;;;4.47;2.17;;;;;;;;;;5032041;28;20103;-74
2022/04/02 11:35:18;;;;;;;4.03;1.85;;;;;;;;;;5028161;28;20514;-74
2022/04/02 11:38:04;;;;;;;4.95;1.60;;;;;;;;;;5031960;28;20037;-76
2022/04/02 11:40:31;;;;;;;4.05;1.80;;;;;;;;;;5031227;28;20048;-75
2022/04/02 11:43:00;;;;;;;4.57;1.80;;;;;;;;;;5027156;28;20017;-74
2022/04/02 11:45:26;;;;;;;4.25;2.00;;;;;;;;;;5025776;28;20046;-74
2022/04/02 11:47:56;;;;;;;6.93;2.13;;;;;;;;;;5029023;28;20034;-76
2022/04/02 11:50:25;;;;;;;6.88;1.90;;;;;;;;;;5028308;28;20500;-75
2022/04/02 11:52:54;;;;;;;7.10;2.30;;;;;;;;;;5025759;28;20029;-74
2022/04/02 11:55:20;;;;;;;6.88;2.03;;;;;;;;;;5024923;28;20046;-73
2022/04/02 11:58:16;;;;;;;3.63;1.95;;;;;;;;;;5029471;28;20037;-74
2022/04/02 12:00:43;;;;;;;3.88;2.20;;;;;;;;;;5020831;28;20037;-73
2022/04/02 12:03:23;;;;;;;5.38;2.20;;;;;;;;;;5031016;28;20116;-74
2022/04/02 12:05:49;;;;;;;3.03;1.77;;;;;;;;;;5029200;28;20085;-73
2022/04/02 12:08:32;;;;;;;6.85;2.20;;;;;;;;;;5028353;28;20036;-74
2022/04/02 12:11:03;;;;;;;5.68;1.95;;;;;;;;;;5028901;28;20045;-74
2022/04/02 12:13:29;;;;;;;5.05;2.10;;;;;;;;;;5029501;28;20045;-75
2022/04/02 12:16:05;;;;;;;5.85;2.40;;;;;;;;;;5029370;28;20768;-73
2022/04/02 12:18:32;;;;;;;7.40;2.40;;;;;;;;;;5028254;28;20033;-75
2022/04/02 12:21:07;;;;;;;7.38;2.63;;;;;;;;;;5030059;28;20026;-74
2022/04/02 12:23:36;;;;;;;5.30;2.08;;;;;;;;;;5030533;28;20044;-76
2022/04/02 12:26:03;;;;;;;4.65;2.17;;;;;;;;;;5033610;28;20505;-74
2022/04/02 12:28:29;;;;;;;8.45;1.90;;;;;;;;;;5026619;28;20103;-74
2022/04/02 12:31:06;;;;;;;9.13;3.15;;;;;;;;;;5026781;28;20030;-75
2022/04/02 12:33:32;;;;;;;7.38;2.13;;;;;;;;;;5022933;28;20459;-74
2022/04/02 12:36:06;;;;;;;6.50;2.05;;;;;;;;;;5011642;28;20140;-72
2022/04/02 12:38:33;;;;;;;5.43;1.80;;;;;;;;;;5032215;28;20035;-74
2022/04/02 12:41:00;;;;;;;7.63;2.25;;;;;;;;;;5026452;28;20200;-74
2022/04/02 12:43:40;;;;;;;6.88;2.25;;;;;;;;;;5031364;28;20050;-73
2022/04/02 12:46:06;;;;;;;5.07;2.20;;;;;;;;;;5027283;28;20029;-72
2022/04/02 12:48:43;;;;;;;5.57;2.60;;;;;;;;;;5024805;28;20132;-75
2022/04/02 12:51:14;;;;;;;5.70;1.90;;;;;;;;;;5029855;28;20030;-76
2022/04/02 12:53:42;;;;;;;7.25;2.35;;;;;;;;;;5028096;28;20033;-75
2022/04/02 12:56:16;;;;;;;6.30;2.47;;;;;;;;;;5031551;28;20085;-74
2022/04/02 12:58:43;;;;;;;5.00;2.03;;;;;;;;;;5031896;28;20033;-76
2022/04/02 13:01:11;;;;;;;4.63;1.90;;;;;;;;;;5015996;28;20037;-74
2022/04/02 13:03:42;;;;;;;2.85;1.75;;;;;;;;;;5028563;28;20033;-74
2022/04/02 13:06:14;;;;;;;4.20;1.73;;;;;;;;;;5031901;28;20025;-75
2022/04/02 13:08:52;;;;;;;4.75;1.95;;;;;;;;;;5029582;28;20034;-74
2022/04/02 13:11:31;;;;;;;3.70;1.75;;;;;;;;;;5032732;28;20114;-73
2022/04/02 13:14:03;;;;;;;3.78;1.70;;;;;;;;;;5026641;28;20032;-76
2022/04/02 13:16:38;;;;;;;3.60;1.58;;;;;;;;;;5028188;28;20033;-73
2022/04/02 13:21:50;;;;;;;4.57;1.75;;;;;;;;;;5033200;28;20076;-74
2022/04/02 13:24:23;;;;;;;7.43;2.05;;;;;;;;;;5024026;28;20040;-75
2022/04/02 13:27:08;;;;;;;6.30;1.60;;;;;;;;;;5023768;28;20029;-75
2022/04/02 13:29:52;;;;;;;6.72;1.73;;;;;;;;;;5027176;28;20061;-75
2022/04/02 13:32:24;;;;;;;3.25;1.60;;;;;;;;;;5026297;28;20053;-74
2022/04/02 13:35:15;;;;;;;3.95;1.63;;;;;;;;;;5027553;28;20033;-73
2022/04/02 13:37:51;;;;;;;6.13;1.63;;;;;;;;;;5026676;28;20451;-75
2022/04/02 13:40:19;;;;;;;2.95;1.50;;;;;;;;;;5027206;28;20368;-73
2022/04/02 13:42:59;;;;;;;4.40;1.60;;;;;;;;;;5030519;28;20021;-76
2022/04/02 13:45:25;;;;;;;3.25;1.58;;;;;;;;;;5031195;28;20486;-74
2022/04/02 13:47:56;;;;;;;4.93;1.65;;;;;;;;;;5029989;28;20060;-75
2022/04/02 13:50:24;;;;;;;4.07;2.30;;;;;;;;;;5028713;28;20025;-74
2022/04/02 13:53:07;;;;;;;8.48;1.88;;;;;;;;;;5033489;28;20053;-74
2022/04/02 13:55:35;;;;;;;6.68;1.88;;;;;;;;;;5028697;28;20056;-77
2022/04/02 13:58:03;;;;;;;6.82;2.05;;;;;;;;;;5031485;28;20054;-72
2022/04/02 14:00:34;;;;;;;5.22;1.83;;;;;;;;;;5028675;28;20215;-72
2022/04/02 14:03:04;;;;;;;11.60;3.45;;;;;;;;;;5029811;28;20029;-74
2022/04/02 14:05:32;;;;;;;11.55;5.13;;;;;;;;;;5034577;28;20032;-74
2022/04/02 14:08:05;;;;;;;24.25;6.32;;;;;;;;;;5031308;28;20118;-74
2022/04/02 14:10:41;;;;;;;7.90;5.07;;;;;;;;;;5036664;28;20513;-75
2022/04/02 14:13:11;;;;;;;13.63;5.47;;;;;;;;;;5037818;28;20033;-75
2022/04/02 14:15:39;;;;;;;3.23;1.70;;;;;;;;;;5034682;28;20021;-74
2022/04/02 14:18:09;;;;;;;7.90;2.38;;;;;;;;;;5010995;28;20638;-74
2022/04/02 14:20:35;;;;;;;6.47;2.80;;;;;;;;;;5010498;28;20132;-74
2022/04/02 14:23:10;;;;;;;9.43;4.38;;;;;;;;;;5028034;28;20381;-75
2022/04/02 14:25:55;;;;;;;7.15;2.30;;;;;;;;;;5028347;28;20057;-75
2022/04/02 14:28:43;;;;;;;11.45;4.80;;;;;;;;;;5028495;28;20061;-73
2022/04/02 14:31:24;;;;;;;6.07;2.88;;;;;;;;;;5031467;28;20029;-76
2022/04/02 14:33:50;;;;;;;5.75;2.20;;;;;;;;;;5030331;28;20128;-75
2022/04/02 14:36:28;;;;;;;4.63;2.03;;;;;;;;;;5030506;28;20033;-76
2022/04/02 14:39:12;;;;;;;4.93;1.95;;;;;;;;;;5030705;28;20089;-74
2022/04/02 14:41:57;;;;;;;6.78;2.72;;;;;;;;;;5031838;28;20113;-74
2022/04/02 14:44:42;;;;;;;4.20;1.70;;;;;;;;;;5029634;28;20029;-76
2022/04/02 14:47:27;;;;;;;5.85;2.90;;;;;;;;;;5023175;28;20120;-75
2022/04/02 14:50:08;;;;;;;5.97;1.80;;;;;;;;;;5023651;28;20121;-74
2022/04/02 14:53:01;;;;;;;6.00;1.63;;;;;;;;;;5026544;28;21000;-76
2022/04/02 14:55:46;;;;;;;4.38;2.00;;;;;;;;;;5008159;28;20037;-73
2022/04/02 14:58:21;;;;;;;3.88;1.88;;;;;;;;;;5019854;28;20109;-76
2022/04/02 15:01:06;;;;;;;5.22;1.92;;;;;;;;;;5025327;28;20087;-76
2022/04/02 15:03:41;;;;;;;9.13;1.90;;;;;;;;;;5025344;28;20029;-75
2022/04/02 15:06:13;;;;;;;11.55;3.50;;;;;;;;;;5025838;28;20351;-76